Townville, SC (29689)

12:34 PM EDT on September 19, 2014 (GMT -0400)
Musser Fruit Farm | Change Station
CLOSE
Current Station
Personal Weather Station
Location: Seneca, SC
Elevation: 727 ft
Nearby Weather Stations

Elev 727 ft 34.60 °N, 82.88 °W | Updated 3 minutes ago

Overcast
Overcast
74.3 °F
Feels Like 76 °F
N
4.0
Wind Variable Wind from ESE
Gusts 11.0 mph

Today
High -- | Low -- °F
--% Chance of Precip.
Yesterday
High -- | Low -- °F
Precip. -- in
7:17 AM 7:32 PM
Waning Crescent, 18% visible
Pressure 30.17 in
Visibility 10.0 miles
Clouds Scattered Clouds 1400 ft
Mostly Cloudy 3100 ft
Heat Index 76 °F
Dew Point 65 °F
Humidity 73%
Rainfall 0.00 in
Snow Depth Not available.
UV 4.5 out of 12
Pollen 6.80 out of 12
Ozone Good
PM2.5 Good
Flu Activity Not available.
SPECI KCEU 191614Z AUTO 06008KT 10SM SCT014 BKN031 23/18 A3017 RMK AO2 T02280178

More Conditions Fewer Conditions

Pressure 30.17 in
Visibility 10.0 miles
Clouds Scattered Clouds 1400 ft
Mostly Cloudy 3100 ft
Heat Index 76 °F
Dew Point 65 °F
Humidity 73%
Rainfall 0.00 in
Snow Depth Not available.
UV 4.5 out of 12
Pollen 6.80 out of 12
Ozone Good
PM2.5 Good
Flu Activity Not available.
SPECI KCEU 191614Z AUTO 06008KT 10SM SCT014 BKN031 23/18 A3017 RMK AO2 T02280178

More Conditions Fewer Conditions

10-Day Weather Forecast

Almanac

Astronomy

Sep. 19, 2014 Rise Set
Actual Time 7:17 AM EDT 7:32 PM EDT
Civil Twilight 6:52 AM EDT 7:57 PM EDT
Nautical Twilight 6:22 AM EDT 8:27 PM EDT
Astronomical Twilight 5:52 AM EDT 8:56 PM EDT
Moon 3:10 AM EDT 4:53 PM EDT
Length of Visible Light 13h 05m
Length of Day
12h 15m
Tomorrow will be 2m 9s shorter.
Waning Crescent, 18% of the Moon is Illuminated
Today
Waning Crescent
Sep 24
New
Oct 1
First Quarter
Oct 8
Full
Oct 15
Last Quarter

Today's Extremes

State Highs State Lows

Community

WunderPhotos

Upload Photos

1,754,648 photos uploaded!

WunderBlogs® & News

By Dr. Jeff Masters
Director of Meteorology, Weather Underground
By Kari Strenfel
Meteorologist, Weather Underground
By Christopher C. Burt
Weather Historian, Weather Underground
September 19, 2014
September 19, 2014
September 19, 2014

Nearby

Air Quality

  Air Quality AQ Index Pollutant
Yesterday Good
PM2.5
Yesterday Good
OZONE
Current Good
PM2.5
Current Good
OZONE
Friday Good
OZONE

Snow Depth

Station Depth Elevation
No new snow has been reported.

Earthquake Activity

City Distance Mag. Time & Date
No recent earthquake activity has been reported nearby.
Minimum magnitude displayed is 2.5.

Coastal Water Temperatures

Place Temperature
No Stations Reporting

Nearby Weather Stations